This is the latest recevied weather packets stored in our database for station/object NO3U. If no packets are shown the sender has not sent any weather packets the latest 10 day(s).
| Time | Temp. | Humidity | Pressure | Rain* | Wind** | Luminosity | Snow |
|---|---|---|---|---|---|---|---|
| 1777655546 | 10° C | 79% | 1012.6 hPa | 0 mm | - | 132 W/m² | - |
| 1777655243 | 10° C | 80% | 1012.7 hPa | 0 mm | - | 142 W/m² | - |
| 1777654940 | 9.44° C | 81% | 1012.7 hPa | 0 mm | - | 130 W/m² | - |
| 1777654637 | 9.44° C | 80% | 1012.6 hPa | 0 mm | - | 100 W/m² | - |
| 1777654335 | 10° C | 80% | 1012.7 hPa | 0 mm | - | 131 W/m² | - |
| 1777654033 | 10° C | 79% | 1012.7 hPa | 0 mm | - | 202 W/m² | - |
| 1777653729 | 9.44° C | 83% | 1013 hPa | 0 mm | - | 282 W/m² | - |
| 1777653425 | 9.44° C | 84% | 1013.2 hPa | 0 mm | - | 182 W/m² | - |
| 1777653123 | 9.44° C | 83% | 1013.2 hPa | 0 mm | - | 109 W/m² | - |
| 1777652818 | 9.44° C | 82% | 1013.2 hPa | 0 mm | - | 98 W/m² | - |
| 1777652515 | 9.44° C | 83% | 1013.4 hPa | 0 mm | - | 223 W/m² | - |
| 1777652212 | 9.44° C | 83% | 1013.4 hPa | 0 mm | - | 241 W/m² | - |
| 1777651910 | 9.44° C | 84% | 1013.4 hPa | 0 mm | - | 211 W/m² | - |
| 1777651606 | 9.44° C | 84% | 1013.4 hPa | 0 mm | - | 309 W/m² | - |
| 1777651304 | 9.44° C | 83% | 1013.4 hPa | 0 mm | - | 290 W/m² | - |
| 1777651000 | 8.89° C | 84% | 1013.5 hPa | 0 mm | - | 135 W/m² | - |
| 1777650697 | 8.89° C | 82% | 1013.4 hPa | 0 mm | - | 102 W/m² | - |
| 1777650394 | 8.89° C | 82% | 1013.5 hPa | 0 mm | - | 92 W/m² | - |
| 1777650091 | 9.44° C | 82% | 1013.6 hPa | 0 mm | - | 90 W/m² | - |
| 1777649789 | 9.44° C | 81% | 1013.8 hPa | 0 mm | - | 91 W/m² | - |
| 1777649486 | 9.44° C | 81% | 1013.7 hPa | 0 mm | - | 108 W/m² | - |
| 1777649182 | 9.44° C | 81% | 1013.6 hPa | 0 mm | - | 108 W/m² | - |
| 1777648879 | 8.89° C | 81% | 1013.6 hPa | 0 mm | - | 122 W/m² | - |
| 1777648273 | 8.89° C | 83% | 1013.7 hPa | 0 mm | - | 142 W/m² | - |
| 1777647969 | 8.89° C | 83% | 1013.7 hPa | 0 mm | - | 112 W/m² | - |
* Rain latest hour (hover to see other rain measurements)
** Current wind speed in m/s (hover to see current wind gust speed)